sensor_id;sensor_type;location;lat;lon;timestamp;temperature;humidity
18426;DHT22;9340;48.756;9.226;2022-08-19T00:00:34;21.60;99.90
18426;DHT22;9340;48.756;9.226;2022-08-19T00:03:01;21.40;99.90
18426;DHT22;9340;48.756;9.226;2022-08-19T00:05:28;21.40;99.90
18426;DHT22;9340;48.756;9.226;2022-08-19T00:07:55;21.40;99.90
18426;DHT22;9340;48.756;9.226;2022-08-19T00:10:23;21.50;99.90
18426;DHT22;9340;48.756;9.226;2022-08-19T00:12:50;21.50;99.90
18426;DHT22;9340;48.756;9.226;2022-08-19T00:15:20;21.60;99.90
18426;DHT22;9340;48.756;9.226;2022-08-19T00:17:48;21.60;99.90
18426;DHT22;9340;48.756;9.226;2022-08-19T00:20:17;21.60;99.90
18426;DHT22;9340;48.756;9.226;2022-08-19T00:22:44;21.50;99.90
18426;DHT22;9340;48.756;9.226;2022-08-19T00:25:11;21.50;99.90
18426;DHT22;9340;48.756;9.226;2022-08-19T00:27:39;21.50;99.90
18426;DHT22;9340;48.756;9.226;2022-08-19T00:30:07;21.50;99.90
18426;DHT22;9340;48.756;9.226;2022-08-19T00:32:35;21.50;99.90
18426;DHT22;9340;48.756;9.226;2022-08-19T00:35:03;21.40;99.90
18426;DHT22;9340;48.756;9.226;2022-08-19T00:37:29;21.50;99.90
18426;DHT22;9340;48.756;9.226;2022-08-19T00:39:56;21.50;99.90
18426;DHT22;9340;48.756;9.226;2022-08-19T00:42:23;21.40;99.90
18426;DHT22;9340;48.756;9.226;2022-08-19T00:44:55;21.40;99.90
18426;DHT22;9340;48.756;9.226;2022-08-19T00:47:21;21.40;99.90
18426;DHT22;9340;48.756;9.226;2022-08-19T00:49:50;21.30;99.90
18426;DHT22;9340;48.756;9.226;2022-08-19T00:52:21;21.30;99.90
18426;DHT22;9340;48.756;9.226;2022-08-19T00:54:49;21.30;99.90
18426;DHT22;9340;48.756;9.226;2022-08-19T00:57:23;21.30;99.90
18426;DHT22;9340;48.756;9.226;2022-08-19T00:59:54;21.30;99.90
18426;DHT22;9340;48.756;9.226;2022-08-19T01:02:22;21.30;99.90
18426;DHT22;9340;48.756;9.226;2022-08-19T01:04:49;21.20;99.90
18426;DHT22;9340;48.756;9.226;2022-08-19T01:07:16;21.20;99.90
18426;DHT22;9340;48.756;9.226;2022-08-19T01:09:43;21.20;99.90
18426;DHT22;9340;48.756;9.226;2022-08-19T01:12:10;21.20;99.90
18426;DHT22;9340;48.756;9.226;2022-08-19T01:14:39;21.30;99.90
18426;DHT22;9340;48.756;9.226;2022-08-19T01:17:09;21.30;99.90
18426;DHT22;9340;48.756;9.226;2022-08-19T01:19:40;21.20;99.90
18426;DHT22;9340;48.756;9.226;2022-08-19T01:22:12;21.20;99.90
18426;DHT22;9340;48.756;9.226;2022-08-19T01:24:43;21.20;99.90
18426;DHT22;9340;48.756;9.226;2022-08-19T01:27:10;21.30;99.90
18426;DHT22;9340;48.756;9.226;2022-08-19T01:29:38;21.20;99.90
18426;DHT22;9340;48.756;9.226;2022-08-19T01:32:06;21.20;99.90
18426;DHT22;9340;48.756;9.226;2022-08-19T01:34:32;21.30;99.90
18426;DHT22;9340;48.756;9.226;2022-08-19T01:36:59;21.20;99.90
18426;DHT22;9340;48.756;9.226;2022-08-19T01:39:27;21.20;99.90
18426;DHT22;9340;48.756;9.226;2022-08-19T01:41:55;21.10;99.90
18426;DHT22;9340;48.756;9.226;2022-08-19T01:44:22;21.20;99.90
18426;DHT22;9340;48.756;9.226;2022-08-19T01:46:51;21.20;99.90
18426;DHT22;9340;48.756;9.226;2022-08-19T01:49:20;21.20;99.90
18426;DHT22;9340;48.756;9.226;2022-08-19T01:51:48;21.20;99.90
18426;DHT22;9340;48.756;9.226;2022-08-19T01:54:17;21.10;99.90
18426;DHT22;9340;48.756;9.226;2022-08-19T01:56:44;21.10;99.90
18426;DHT22;9340;48.756;9.226;2022-08-19T01:59:15;21.10;99.90
18426;DHT22;9340;48.756;9.226;2022-08-19T02:01:42;21.10;99.90
18426;DHT22;9340;48.756;9.226;2022-08-19T02:04:09;21.10;99.90
18426;DHT22;9340;48.756;9.226;2022-08-19T02:06:37;21.10;99.90
18426;DHT22;9340;48.756;9.226;2022-08-19T02:09:05;21.10;99.90
18426;DHT22;9340;48.756;9.226;2022-08-19T02:11:33;21.10;99.90
18426;DHT22;9340;48.756;9.226;2022-08-19T02:14:02;21.10;99.90
18426;DHT22;9340;48.756;9.226;2022-08-19T02:16:31;21.00;99.90
18426;DHT22;9340;48.756;9.226;2022-08-19T02:18:57;21.00;99.90
18426;DHT22;9340;48.756;9.226;2022-08-19T02:21:26;21.00;99.90
18426;DHT22;9340;48.756;9.226;2022-08-19T02:23:54;21.00;99.90
18426;DHT22;9340;48.756;9.226;2022-08-19T02:26:21;21.10;99.90
18426;DHT22;9340;48.756;9.226;2022-08-19T02:28:49;21.00;99.90
18426;DHT22;9340;48.756;9.226;2022-08-19T02:31:19;21.00;99.90
18426;DHT22;9340;48.756;9.226;2022-08-19T02:33:48;21.00;99.90
18426;DHT22;9340;48.756;9.226;2022-08-19T02:36:16;20.90;99.90
18426;DHT22;9340;48.756;9.226;2022-08-19T02:38:43;20.90;99.90
18426;DHT22;9340;48.756;9.226;2022-08-19T02:41:13;21.00;99.90
18426;DHT22;9340;48.756;9.226;2022-08-19T02:43:40;20.90;99.90
18426;DHT22;9340;48.756;9.226;2022-08-19T02:46:15;20.90;99.90
18426;DHT22;9340;48.756;9.226;2022-08-19T02:48:48;20.90;99.90
18426;DHT22;9340;48.756;9.226;2022-08-19T02:51:19;21.00;99.90
18426;DHT22;9340;48.756;9.226;2022-08-19T02:53:46;20.90;99.90
18426;DHT22;9340;48.756;9.226;2022-08-19T02:56:13;20.90;99.90
18426;DHT22;9340;48.756;9.226;2022-08-19T02:58:41;20.90;99.90
18426;DHT22;9340;48.756;9.226;2022-08-19T03:01:08;20.90;99.90
18426;DHT22;9340;48.756;9.226;2022-08-19T03:03:36;20.90;99.90
18426;DHT22;9340;48.756;9.226;2022-08-19T03:06:07;20.80;99.90
18426;DHT22;9340;48.756;9.226;2022-08-19T03:08:34;20.70;99.90
18426;DHT22;9340;48.756;9.226;2022-08-19T03:11:01;20.60;99.90
18426;DHT22;9340;48.756;9.226;2022-08-19T03:13:27;20.50;99.90
18426;DHT22;9340;48.756;9.226;2022-08-19T03:15:54;20.50;99.90
18426;DHT22;9340;48.756;9.226;2022-08-19T03:18:21;20.60;99.90
18426;DHT22;9340;48.756;9.226;2022-08-19T03:20:49;20.60;99.90
18426;DHT22;9340;48.756;9.226;2022-08-19T03:23:18;20.50;99.90
18426;DHT22;9340;48.756;9.226;2022-08-19T03:25:47;20.50;99.90
18426;DHT22;9340;48.756;9.226;2022-08-19T03:28:15;20.50;99.90
18426;DHT22;9340;48.756;9.226;2022-08-19T03:30:44;20.50;99.90
18426;DHT22;9340;48.756;9.226;2022-08-19T03:33:22;20.50;99.90
18426;DHT22;9340;48.756;9.226;2022-08-19T03:36:00;20.40;99.90
18426;DHT22;9340;48.756;9.226;2022-08-19T03:38:28;20.40;99.90
18426;DHT22;9340;48.756;9.226;2022-08-19T03:40:55;20.40;99.90
18426;DHT22;9340;48.756;9.226;2022-08-19T03:43:21;20.40;99.90
18426;DHT22;9340;48.756;9.226;2022-08-19T03:45:48;20.40;99.90
18426;DHT22;9340;48.756;9.226;2022-08-19T03:48:16;20.30;99.90
18426;DHT22;9340;48.756;9.226;2022-08-19T03:50:43;20.40;99.90
18426;DHT22;9340;48.756;9.226;2022-08-19T03:53:09;20.30;99.90
18426;DHT22;9340;48.756;9.226;2022-08-19T03:55:40;20.30;99.90
18426;DHT22;9340;48.756;9.226;2022-08-19T03:58:07;20.30;99.90
18426;DHT22;9340;48.756;9.226;2022-08-19T04:00:34;20.30;99.90
18426;DHT22;9340;48.756;9.226;2022-08-19T04:03:01;20.30;99.90
18426;DHT22;9340;48.756;9.226;2022-08-19T04:05:28;20.20;99.90
18426;DHT22;9340;48.756;9.226;2022-08-19T04:07:55;20.20;99.90
18426;DHT22;9340;48.756;9.226;2022-08-19T04:10:24;20.20;99.90
18426;DHT22;9340;48.756;9.226;2022-08-19T04:12:52;20.30;99.90
18426;DHT22;9340;48.756;9.226;2022-08-19T04:15:19;20.30;99.90
18426;DHT22;9340;48.756;9.226;2022-08-19T04:17:46;20.30;99.90
18426;DHT22;9340;48.756;9.226;2022-08-19T04:20:13;20.30;99.90
18426;DHT22;9340;48.756;9.226;2022-08-19T04:22:39;20.30;99.90
18426;DHT22;9340;48.756;9.226;2022-08-19T04:25:06;20.30;99.90
18426;DHT22;9340;48.756;9.226;2022-08-19T04:27:33;20.30;99.90
18426;DHT22;9340;48.756;9.226;2022-08-19T04:30:01;20.30;99.90
18426;DHT22;9340;48.756;9.226;2022-08-19T04:32:28;20.30;99.90
18426;DHT22;9340;48.756;9.226;2022-08-19T04:34:57;20.30;99.90
18426;DHT22;9340;48.756;9.226;2022-08-19T04:37:24;20.30;99.90
18426;DHT22;9340;48.756;9.226;2022-08-19T04:39:52;20.30;99.90
18426;DHT22;9340;48.756;9.226;2022-08-19T04:42:36;20.30;99.90
18426;DHT22;9340;48.756;9.226;2022-08-19T04:45:10;20.50;99.90
18426;DHT22;9340;48.756;9.226;2022-08-19T04:47:37;20.60;99.90
18426;DHT22;9340;48.756;9.226;2022-08-19T04:50:04;20.60;99.90
18426;DHT22;9340;48.756;9.226;2022-08-19T04:52:31;20.70;99.90
18426;DHT22;9340;48.756;9.226;2022-08-19T04:54:58;20.70;99.90
18426;DHT22;9340;48.756;9.226;2022-08-19T04:57:25;20.80;99.90
18426;DHT22;9340;48.756;9.226;2022-08-19T04:59:54;20.70;99.90
18426;DHT22;9340;48.756;9.226;2022-08-19T05:02:22;20.60;99.90
18426;DHT22;9340;48.756;9.226;2022-08-19T05:04:50;20.70;99.90
18426;DHT22;9340;48.756;9.226;2022-08-19T05:07:16;20.60;99.90
18426;DHT22;9340;48.756;9.226;2022-08-19T05:09:44;20.70;99.90
18426;DHT22;9340;48.756;9.226;2022-08-19T05:12:10;20.70;99.90
18426;DHT22;9340;48.756;9.226;2022-08-19T05:14:37;20.80;99.90
18426;DHT22;9340;48.756;9.226;2022-08-19T05:17:03;20.70;99.90
18426;DHT22;9340;48.756;9.226;2022-08-19T05:19:31;20.80;99.90
18426;DHT22;9340;48.756;9.226;2022-08-19T05:22:16;20.80;99.90
18426;DHT22;9340;48.756;9.226;2022-08-19T05:25:03;20.90;99.90
18426;DHT22;9340;48.756;9.226;2022-08-19T05:27:30;20.90;99.90
18426;DHT22;9340;48.756;9.226;2022-08-19T05:29:57;21.00;99.90
18426;DHT22;9340;48.756;9.226;2022-08-19T05:32:24;20.90;99.90
18426;DHT22;9340;48.756;9.226;2022-08-19T05:34:52;20.80;99.90
18426;DHT22;9340;48.756;9.226;2022-08-19T05:37:19;20.90;99.90
18426;DHT22;9340;48.756;9.226;2022-08-19T05:39:46;20.90;99.90
18426;DHT22;9340;48.756;9.226;2022-08-19T05:42:14;20.90;99.90
18426;DHT22;9340;48.756;9.226;2022-08-19T05:44:43;20.90;99.90
18426;DHT22;9340;48.756;9.226;2022-08-19T05:47:12;20.90;99.90
18426;DHT22;9340;48.756;9.226;2022-08-19T05:49:40;21.00;99.90
18426;DHT22;9340;48.756;9.226;2022-08-19T05:52:12;21.00;99.90
18426;DHT22;9340;48.756;9.226;2022-08-19T05:54:40;21.10;99.90
18426;DHT22;9340;48.756;9.226;2022-08-19T05:57:08;21.00;99.90
18426;DHT22;9340;48.756;9.226;2022-08-19T05:59:35;21.10;99.90
18426;DHT22;9340;48.756;9.226;2022-08-19T06:02:04;21.10;99.90
18426;DHT22;9340;48.756;9.226;2022-08-19T06:04:31;21.20;99.90
18426;DHT22;9340;48.756;9.226;2022-08-19T06:06:58;21.20;99.90
18426;DHT22;9340;48.756;9.226;2022-08-19T06:09:28;21.10;99.90
18426;DHT22;9340;48.756;9.226;2022-08-19T06:11:57;21.10;99.90
18426;DHT22;9340;48.756;9.226;2022-08-19T06:14:28;21.10;99.90
18426;DHT22;9340;48.756;9.226;2022-08-19T06:16:56;21.10;99.90
18426;DHT22;9340;48.756;9.226;2022-08-19T06:19:25;21.20;99.90
18426;DHT22;9340;48.756;9.226;2022-08-19T06:21:52;21.10;99.90
18426;DHT22;9340;48.756;9.226;2022-08-19T06:24:21;21.10;99.90
18426;DHT22;9340;48.756;9.226;2022-08-19T06:26:51;21.10;99.90
18426;DHT22;9340;48.756;9.226;2022-08-19T06:29:19;20.90;99.90
18426;DHT22;9340;48.756;9.226;2022-08-19T06:31:49;20.60;99.90
18426;DHT22;9340;48.756;9.226;2022-08-19T06:34:17;20.20;99.90
18426;DHT22;9340;48.756;9.226;2022-08-19T06:36:46;20.30;99.90
18426;DHT22;9340;48.756;9.226;2022-08-19T06:39:15;20.10;99.90
18426;DHT22;9340;48.756;9.226;2022-08-19T06:41:43;20.00;99.90
18426;DHT22;9340;48.756;9.226;2022-08-19T06:44:12;19.90;99.90
18426;DHT22;9340;48.756;9.226;2022-08-19T06:46:40;20.10;99.90
18426;DHT22;9340;48.756;9.226;2022-08-19T06:49:07;20.10;99.90
18426;DHT22;9340;48.756;9.226;2022-08-19T06:51:34;20.20;99.90
18426;DHT22;9340;48.756;9.226;2022-08-19T06:54:01;20.30;99.90
18426;DHT22;9340;48.756;9.226;2022-08-19T06:56:29;20.50;99.90
18426;DHT22;9340;48.756;9.226;2022-08-19T06:58:59;20.60;99.90
18426;DHT22;9340;48.756;9.226;2022-08-19T07:01:27;20.80;99.90
18426;DHT22;9340;48.756;9.226;2022-08-19T07:03:53;20.90;99.90
18426;DHT22;9340;48.756;9.226;2022-08-19T07:06:20;20.90;99.90
18426;DHT22;9340;48.756;9.226;2022-08-19T07:08:47;20.90;99.90
18426;DHT22;9340;48.756;9.226;2022-08-19T07:11:16;21.00;99.90
18426;DHT22;9340;48.756;9.226;2022-08-19T07:13:44;21.10;99.90
18426;DHT22;9340;48.756;9.226;2022-08-19T07:16:16;21.10;99.90
18426;DHT22;9340;48.756;9.226;2022-08-19T07:18:44;21.20;99.90
18426;DHT22;9340;48.756;9.226;2022-08-19T07:21:13;21.30;99.90
18426;DHT22;9340;48.756;9.226;2022-08-19T07:23:40;21.40;99.90
18426;DHT22;9340;48.756;9.226;2022-08-19T07:26:08;21.40;99.90
18426;DHT22;9340;48.756;9.226;2022-08-19T07:28:36;21.50;99.90
18426;DHT22;9340;48.756;9.226;2022-08-19T07:31:05;21.50;99.90
18426;DHT22;9340;48.756;9.226;2022-08-19T07:33:32;21.50;99.90
18426;DHT22;9340;48.756;9.226;2022-08-19T07:36:05;21.50;99.90
18426;DHT22;9340;48.756;9.226;2022-08-19T07:38:32;21.40;99.90
18426;DHT22;9340;48.756;9.226;2022-08-19T07:41:00;21.30;99.90
18426;DHT22;9340;48.756;9.226;2022-08-19T07:43:27;21.30;99.90
18426;DHT22;9340;48.756;9.226;2022-08-19T07:45:55;21.20;99.90
18426;DHT22;9340;48.756;9.226;2022-08-19T07:48:22;21.20;99.90
18426;DHT22;9340;48.756;9.226;2022-08-19T07:50:51;21.20;99.90
18426;DHT22;9340;48.756;9.226;2022-08-19T07:53:19;21.00;99.90
18426;DHT22;9340;48.756;9.226;2022-08-19T07:55:46;20.90;99.90
18426;DHT22;9340;48.756;9.226;2022-08-19T07:58:16;20.90;99.90
18426;DHT22;9340;48.756;9.226;2022-08-19T08:00:45;20.60;99.90
18426;DHT22;9340;48.756;9.226;2022-08-19T08:03:12;20.60;99.90
18426;DHT22;9340;48.756;9.226;2022-08-19T08:05:39;20.60;99.90
18426;DHT22;9340;48.756;9.226;2022-08-19T08:08:25;20.40;99.90
18426;DHT22;9340;48.756;9.226;2022-08-19T08:11:09;20.30;99.90
18426;DHT22;9340;48.756;9.226;2022-08-19T08:13:36;20.30;99.90
18426;DHT22;9340;48.756;9.226;2022-08-19T08:16:03;20.30;99.90
18426;DHT22;9340;48.756;9.226;2022-08-19T08:18:31;20.30;99.90
18426;DHT22;9340;48.756;9.226;2022-08-19T08:20:59;20.40;99.90
18426;DHT22;9340;48.756;9.226;2022-08-19T08:23:27;20.30;99.90
18426;DHT22;9340;48.756;9.226;2022-08-19T08:25:57;20.30;99.90
18426;DHT22;9340;48.756;9.226;2022-08-19T08:28:25;20.40;99.90
18426;DHT22;9340;48.756;9.226;2022-08-19T08:30:52;20.40;99.90
18426;DHT22;9340;48.756;9.226;2022-08-19T08:33:22;20.40;99.90
18426;DHT22;9340;48.756;9.226;2022-08-19T08:35:49;20.50;99.90
18426;DHT22;9340;48.756;9.226;2022-08-19T08:38:16;20.50;99.90
18426;DHT22;9340;48.756;9.226;2022-08-19T08:40:46;20.50;99.90
18426;DHT22;9340;48.756;9.226;2022-08-19T08:43:22;20.60;99.90
18426;DHT22;9340;48.756;9.226;2022-08-19T08:45:55;20.70;99.90
18426;DHT22;9340;48.756;9.226;2022-08-19T08:48:27;20.80;99.90
18426;DHT22;9340;48.756;9.226;2022-08-19T08:50:59;21.00;99.90
18426;DHT22;9340;48.756;9.226;2022-08-19T08:53:27;21.30;99.90
18426;DHT22;9340;48.756;9.226;2022-08-19T08:55:56;21.40;99.90
18426;DHT22;9340;48.756;9.226;2022-08-19T08:58:27;21.70;99.90
18426;DHT22;9340;48.756;9.226;2022-08-19T09:00:56;21.90;99.90
18426;DHT22;9340;48.756;9.226;2022-08-19T09:03:25;22.20;99.90
18426;DHT22;9340;48.756;9.226;2022-08-19T09:05:59;22.50;99.90
18426;DHT22;9340;48.756;9.226;2022-08-19T09:08:39;22.70;99.90
18426;DHT22;9340;48.756;9.226;2022-08-19T09:11:10;23.00;99.90
18426;DHT22;9340;48.756;9.226;2022-08-19T09:13:49;23.10;99.90
18426;DHT22;9340;48.756;9.226;2022-08-19T09:16:21;23.20;99.90
18426;DHT22;9340;48.756;9.226;2022-08-19T09:18:51;23.00;99.90
18426;DHT22;9340;48.756;9.226;2022-08-19T09:21:19;22.90;99.90
18426;DHT22;9340;48.756;9.226;2022-08-19T09:23:47;22.80;99.90
18426;DHT22;9340;48.756;9.226;2022-08-19T09:26:18;22.70;99.90
18426;DHT22;9340;48.756;9.226;2022-08-19T09:28:48;22.50;99.90
18426;DHT22;9340;48.756;9.226;2022-08-19T09:31:25;22.30;99.90
18426;DHT22;9340;48.756;9.226;2022-08-19T09:33:53;22.20;99.90
18426;DHT22;9340;48.756;9.226;2022-08-19T09:36:23;22.10;99.90
18426;DHT22;9340;48.756;9.226;2022-08-19T09:38:51;22.00;99.90
18426;DHT22;9340;48.756;9.226;2022-08-19T09:41:22;22.00;99.90
18426;DHT22;9340;48.756;9.226;2022-08-19T09:43:51;21.90;99.90
18426;DHT22;9340;48.756;9.226;2022-08-19T09:46:19;21.70;99.90
18426;DHT22;9340;48.756;9.226;2022-08-19T09:48:46;21.70;99.90
18426;DHT22;9340;48.756;9.226;2022-08-19T09:51:17;21.70;99.90
18426;DHT22;9340;48.756;9.226;2022-08-19T09:53:45;21.70;99.90
18426;DHT22;9340;48.756;9.226;2022-08-19T09:56:13;21.40;99.90
18426;DHT22;9340;48.756;9.226;2022-08-19T09:58:42;21.20;99.90
18426;DHT22;9340;48.756;9.226;2022-08-19T10:01:09;21.00;99.90
18426;DHT22;9340;48.756;9.226;2022-08-19T10:03:36;20.90;99.90
18426;DHT22;9340;48.756;9.226;2022-08-19T10:06:04;20.80;99.90
18426;DHT22;9340;48.756;9.226;2022-08-19T10:08:36;20.80;99.90
18426;DHT22;9340;48.756;9.226;2022-08-19T10:11:05;20.80;99.90
18426;DHT22;9340;48.756;9.226;2022-08-19T10:13:32;20.80;99.90
18426;DHT22;9340;48.756;9.226;2022-08-19T10:16:05;20.70;99.90
18426;DHT22;9340;48.756;9.226;2022-08-19T10:18:33;20.70;99.90
18426;DHT22;9340;48.756;9.226;2022-08-19T10:21:06;20.60;99.90
18426;DHT22;9340;48.756;9.226;2022-08-19T10:23:36;20.60;99.90
18426;DHT22;9340;48.756;9.226;2022-08-19T10:26:04;20.50;99.90
18426;DHT22;9340;48.756;9.226;2022-08-19T10:28:32;20.50;99.90
18426;DHT22;9340;48.756;9.226;2022-08-19T10:31:05;20.40;99.90
18426;DHT22;9340;48.756;9.226;2022-08-19T10:33:32;20.20;99.90
18426;DHT22;9340;48.756;9.226;2022-08-19T10:36:00;20.10;99.90
18426;DHT22;9340;48.756;9.226;2022-08-19T10:38:27;20.30;99.90
18426;DHT22;9340;48.756;9.226;2022-08-19T10:40:55;20.40;99.90
18426;DHT22;9340;48.756;9.226;2022-08-19T10:43:21;20.30;99.90
18426;DHT22;9340;48.756;9.226;2022-08-19T10:45:52;20.50;99.90
18426;DHT22;9340;48.756;9.226;2022-08-19T10:48:20;20.60;99.90
18426;DHT22;9340;48.756;9.226;2022-08-19T10:50:47;20.80;99.90
18426;DHT22;9340;48.756;9.226;2022-08-19T10:53:31;20.90;99.90
18426;DHT22;9340;48.756;9.226;2022-08-19T10:55:58;21.00;99.90
18426;DHT22;9340;48.756;9.226;2022-08-19T10:58:42;21.20;99.90
18426;DHT22;9340;48.756;9.226;2022-08-19T11:01:10;21.40;99.90
18426;DHT22;9340;48.756;9.226;2022-08-19T11:03:38;21.50;99.90
18426;DHT22;9340;48.756;9.226;2022-08-19T11:06:07;21.50;99.90
18426;DHT22;9340;48.756;9.226;2022-08-19T11:08:34;21.40;99.90
18426;DHT22;9340;48.756;9.226;2022-08-19T11:11:04;21.30;99.90
18426;DHT22;9340;48.756;9.226;2022-08-19T11:13:32;21.10;99.90
18426;DHT22;9340;48.756;9.226;2022-08-19T11:16:03;21.00;99.90
18426;DHT22;9340;48.756;9.226;2022-08-19T11:18:32;20.80;99.90
18426;DHT22;9340;48.756;9.226;2022-08-19T11:21:07;20.90;99.90
18426;DHT22;9340;48.756;9.226;2022-08-19T11:23:35;20.80;99.90
18426;DHT22;9340;48.756;9.226;2022-08-19T11:26:02;20.90;99.90
18426;DHT22;9340;48.756;9.226;2022-08-19T11:28:29;20.70;99.90
18426;DHT22;9340;48.756;9.226;2022-08-19T11:30:56;20.70;99.90
18426;DHT22;9340;48.756;9.226;2022-08-19T11:33:22;20.70;99.90
18426;DHT22;9340;48.756;9.226;2022-08-19T11:35:51;20.90;99.90
18426;DHT22;9340;48.756;9.226;2022-08-19T11:38:19;20.90;99.90
18426;DHT22;9340;48.756;9.226;2022-08-19T11:40:54;21.10;99.90
18426;DHT22;9340;48.756;9.226;2022-08-19T11:43:21;21.20;99.90
18426;DHT22;9340;48.756;9.226;2022-08-19T11:45:47;21.40;99.90
18426;DHT22;9340;48.756;9.226;2022-08-19T11:48:14;21.70;99.90
18426;DHT22;9340;48.756;9.226;2022-08-19T11:50:41;21.70;99.90
18426;DHT22;9340;48.756;9.226;2022-08-19T11:53:09;21.30;99.90
18426;DHT22;9340;48.756;9.226;2022-08-19T11:55:38;21.20;99.90
18426;DHT22;9340;48.756;9.226;2022-08-19T11:58:06;21.20;99.90
18426;DHT22;9340;48.756;9.226;2022-08-19T12:00:33;21.30;99.90
18426;DHT22;9340;48.756;9.226;2022-08-19T12:03:02;21.40;99.90
18426;DHT22;9340;48.756;9.226;2022-08-19T12:05:29;21.60;99.90
18426;DHT22;9340;48.756;9.226;2022-08-19T12:07:56;21.70;99.90
18426;DHT22;9340;48.756;9.226;2022-08-19T12:10:23;21.80;99.90
18426;DHT22;9340;48.756;9.226;2022-08-19T12:12:51;21.80;99.90
18426;DHT22;9340;48.756;9.226;2022-08-19T12:15:18;21.90;99.90
18426;DHT22;9340;48.756;9.226;2022-08-19T12:17:45;21.80;99.90
18426;DHT22;9340;48.756;9.226;2022-08-19T12:20:22;21.70;99.90
18426;DHT22;9340;48.756;9.226;2022-08-19T12:22:49;21.50;99.90
18426;DHT22;9340;48.756;9.226;2022-08-19T12:25:16;21.50;99.90
18426;DHT22;9340;48.756;9.226;2022-08-19T12:27:43;21.40;99.90
18426;DHT22;9340;48.756;9.226;2022-08-19T12:30:13;21.30;99.90
18426;DHT22;9340;48.756;9.226;2022-08-19T12:32:41;21.40;99.90
18426;DHT22;9340;48.756;9.226;2022-08-19T12:35:08;21.50;99.90
18426;DHT22;9340;48.756;9.226;2022-08-19T12:37:37;21.40;99.90
18426;DHT22;9340;48.756;9.226;2022-08-19T12:40:04;21.20;99.90
18426;DHT22;9340;48.756;9.226;2022-08-19T12:42:31;21.10;99.90
18426;DHT22;9340;48.756;9.226;2022-08-19T12:44:58;21.10;99.90
18426;DHT22;9340;48.756;9.226;2022-08-19T12:47:26;21.10;99.90
18426;DHT22;9340;48.756;9.226;2022-08-19T12:49:52;21.10;99.90
18426;DHT22;9340;48.756;9.226;2022-08-19T12:52:19;21.20;99.90
18426;DHT22;9340;48.756;9.226;2022-08-19T12:54:46;21.40;99.90
18426;DHT22;9340;48.756;9.226;2022-08-19T12:57:13;21.50;99.90
18426;DHT22;9340;48.756;9.226;2022-08-19T12:59:40;21.60;99.90
18426;DHT22;9340;48.756;9.226;2022-08-19T13:02:07;21.70;99.90
18426;DHT22;9340;48.756;9.226;2022-08-19T13:04:35;21.80;99.90
18426;DHT22;9340;48.756;9.226;2022-08-19T13:07:06;22.10;99.90
18426;DHT22;9340;48.756;9.226;2022-08-19T13:09:33;22.30;99.90
18426;DHT22;9340;48.756;9.226;2022-08-19T13:11:59;22.40;99.90
18426;DHT22;9340;48.756;9.226;2022-08-19T13:14:28;22.40;99.90
18426;DHT22;9340;48.756;9.226;2022-08-19T13:16:56;22.30;99.90
18426;DHT22;9340;48.756;9.226;2022-08-19T13:19:23;22.10;99.90
18426;DHT22;9340;48.756;9.226;2022-08-19T13:21:51;21.90;99.90
18426;DHT22;9340;48.756;9.226;2022-08-19T13:24:19;21.50;99.90
18426;DHT22;9340;48.756;9.226;2022-08-19T13:26:46;21.50;99.90
18426;DHT22;9340;48.756;9.226;2022-08-19T13:29:13;21.40;99.90
18426;DHT22;9340;48.756;9.226;2022-08-19T13:31:58;21.30;99.90
18426;DHT22;9340;48.756;9.226;2022-08-19T13:34:42;21.00;99.90
18426;DHT22;9340;48.756;9.226;2022-08-19T13:37:11;21.00;99.90
18426;DHT22;9340;48.756;9.226;2022-08-19T13:39:38;20.90;99.90
18426;DHT22;9340;48.756;9.226;2022-08-19T13:42:05;20.80;99.90
18426;DHT22;9340;48.756;9.226;2022-08-19T13:44:33;20.80;99.90
18426;DHT22;9340;48.756;9.226;2022-08-19T13:47:01;21.00;99.90
18426;DHT22;9340;48.756;9.226;2022-08-19T13:49:31;20.90;99.90
18426;DHT22;9340;48.756;9.226;2022-08-19T13:51:58;20.80;99.90
18426;DHT22;9340;48.756;9.226;2022-08-19T13:54:26;20.90;99.90
18426;DHT22;9340;48.756;9.226;2022-08-19T13:56:53;21.00;99.90
18426;DHT22;9340;48.756;9.226;2022-08-19T13:59:20;20.90;99.90
18426;DHT22;9340;48.756;9.226;2022-08-19T14:01:46;21.00;99.90
18426;DHT22;9340;48.756;9.226;2022-08-19T14:04:13;20.80;99.90
18426;DHT22;9340;48.756;9.226;2022-08-19T14:06:40;20.80;99.90
18426;DHT22;9340;48.756;9.226;2022-08-19T14:09:06;20.50;99.90
18426;DHT22;9340;48.756;9.226;2022-08-19T14:11:34;20.50;99.90
18426;DHT22;9340;48.756;9.226;2022-08-19T14:14:02;20.40;99.90
18426;DHT22;9340;48.756;9.226;2022-08-19T14:16:29;20.50;99.90
18426;DHT22;9340;48.756;9.226;2022-08-19T14:18:56;20.50;99.90
18426;DHT22;9340;48.756;9.226;2022-08-19T14:21:24;20.30;99.90
18426;DHT22;9340;48.756;9.226;2022-08-19T14:23:51;20.20;99.90
18426;DHT22;9340;48.756;9.226;2022-08-19T14:26:20;20.20;99.90
18426;DHT22;9340;48.756;9.226;2022-08-19T14:28:49;20.30;99.90
18426;DHT22;9340;48.756;9.226;2022-08-19T14:31:16;20.40;99.90
18426;DHT22;9340;48.756;9.226;2022-08-19T14:33:45;20.40;99.90
18426;DHT22;9340;48.756;9.226;2022-08-19T14:36:12;20.50;99.90
18426;DHT22;9340;48.756;9.226;2022-08-19T14:38:39;20.40;99.90
18426;DHT22;9340;48.756;9.226;2022-08-19T14:41:12;20.50;99.90
18426;DHT22;9340;48.756;9.226;2022-08-19T14:43:39;20.80;99.90
18426;DHT22;9340;48.756;9.226;2022-08-19T14:46:08;21.00;99.90
18426;DHT22;9340;48.756;9.226;2022-08-19T14:48:35;21.30;99.90
18426;DHT22;9340;48.756;9.226;2022-08-19T14:51:04;21.40;99.90
18426;DHT22;9340;48.756;9.226;2022-08-19T14:53:31;21.20;99.90
18426;DHT22;9340;48.756;9.226;2022-08-19T14:55:59;21.20;99.90
18426;DHT22;9340;48.756;9.226;2022-08-19T14:58:26;21.20;99.90
18426;DHT22;9340;48.756;9.226;2022-08-19T15:00:53;21.10;99.90
18426;DHT22;9340;48.756;9.226;2022-08-19T15:03:21;21.20;99.90
18426;DHT22;9340;48.756;9.226;2022-08-19T15:05:48;21.20;99.90
18426;DHT22;9340;48.756;9.226;2022-08-19T15:08:14;21.30;99.90
18426;DHT22;9340;48.756;9.226;2022-08-19T15:10:41;21.40;99.90
18426;DHT22;9340;48.756;9.226;2022-08-19T15:13:07;21.50;99.90
18426;DHT22;9340;48.756;9.226;2022-08-19T15:15:34;21.60;99.90
18426;DHT22;9340;48.756;9.226;2022-08-19T15:18:01;21.80;99.90
18426;DHT22;9340;48.756;9.226;2022-08-19T15:20:30;22.00;99.90
18426;DHT22;9340;48.756;9.226;2022-08-19T15:22:57;22.10;99.90
18426;DHT22;9340;48.756;9.226;2022-08-19T15:25:25;22.30;99.90
18426;DHT22;9340;48.756;9.226;2022-08-19T15:27:52;22.60;99.90
18426;DHT22;9340;48.756;9.226;2022-08-19T15:30:21;22.80;99.90
18426;DHT22;9340;48.756;9.226;2022-08-19T15:32:48;23.00;99.90
18426;DHT22;9340;48.756;9.226;2022-08-19T15:35:15;23.20;99.90
18426;DHT22;9340;48.756;9.226;2022-08-19T15:37:47;23.30;99.90
18426;DHT22;9340;48.756;9.226;2022-08-19T15:40:14;22.90;99.90
18426;DHT22;9340;48.756;9.226;2022-08-19T15:42:40;22.90;99.90
18426;DHT22;9340;48.756;9.226;2022-08-19T15:45:08;22.90;99.90
18426;DHT22;9340;48.756;9.226;2022-08-19T15:47:36;22.80;99.90
18426;DHT22;9340;48.756;9.226;2022-08-19T15:50:05;22.50;99.90
18426;DHT22;9340;48.756;9.226;2022-08-19T15:52:32;22.50;99.90